Airfield :
LOGIN :

Register | Disclaimer

   EN    FR    IT 

 










Legend :    VFR   Marginal VFR   IFR   Intensive IFR   Very Intensive IFR
Visi :
Ceiling :
>= 8 km
>= 3000ft
5 to 8 km
1000 to 3000 ft
1500m to 5 km
500 to 1000 ft
800 to 1500m
200 to 500 ft
< 800m
< 200 ft
Symbols :   Thunderstorms  Fog  Heavy snow  Heavy precipitations  Wind > 20 kt
SIGMETs :     Misc.  Thunderstorms  Icing  Turbulence  Mountain Waves  Volcanic Ashes






- Airport Elevation : 479 ft
- IATA code : DOL


LFRG - Deauville

CURRENT METAR :
  • 291100Z AUTO 20011KT 170V240 9999 BKN020 OVC026 12/09 Q1006 TEMPO 21015G25KT BKN010

EXPIRED METARs :
  • 291030Z AUTO 20012KT 9999 BKN018 BKN024 OVC030 11/09 Q1007 TEMPO 21015G25KT BKN010
  • 291000Z AUTO 19012KT 160V220 9999 BKN020 BKN058 11/09 Q1007 TEMPO 21015G25KT BKN010
  • 290930Z AUTO 18011KT 9999 SCT047 BKN054 10/09 Q1007 TEMPO 21015G25KT BKN010
  • 290900Z AUTO 17010KT 9999 BKN007 BKN011 OVC047 10/10 Q1008 TEMPO 21015G25KT BKN004
  • 290830Z AUTO 18008KT 150V210 9999 BKN003 BKN007 BKN013 10/09 Q1009 TEMPO 21015G25KT
  • 290800Z AUTO 18007KT 9999 -DZ BKN004 BKN016 BKN026 09/09 Q1009 TEMPO BKN012
  • 290730Z AUTO 22009KT 190V250 6000 2200 BKN007 OVC016 09/09 Q1010 TEMPO BKN012
  • 290700Z AUTO 23009KT 3400 -DZ BR BKN004 OVC014 09/09 Q1010 TEMPO SCT012 BKN025 BECMG 9999 NSW
  • 290630Z AUTO 24007KT 2700 -RA BR OVC003 10/09 Q1010 TEMPO SCT012 BKN025 BECMG 9999 NSW

TAF TAF LFRG
Valid from the 29 at 09:00 until the 29 at 18:00 UTC


290800Z 2909/2918 21010KT 9999 BKN015
TEMPO 2909/2915 BKN010
PROB40
TEMPO 2909/2911 BKN004
PROB40
TEMPO 2910/2916 21015G25KT
TEMPO 2915/2918 3000 RA BKN012TCU
BECMG 2916/2918 32015G25KT
ATIS : +33 2 31 65 65 36



MET'MAP, your aeronautical weather chart ! - Copyright ORBIFLY December 2007 - Disclaimer

ORBIFLY MET'MAP TEAM :

Programming & Development : Alexandra Zaïnal
Original concept : Baudouin d'Aumeries
Technical & hardware support : Manuel Goepfert
Assistance : Marc-Olivier Méhu




SOURCES & CREDITS :

   NOAA